createdAt,value
2024-03-08T00:00:52.498Z,14.27
2024-03-08T00:03:20.570Z,15.50
2024-03-08T00:05:48.656Z,14.57
2024-03-08T00:08:16.753Z,15.63
2024-03-08T00:10:44.891Z,15.67
2024-03-08T00:13:14.224Z,14.37
2024-03-08T00:15:42.379Z,15.47
2024-03-08T00:18:11.470Z,15.93
2024-03-08T00:20:39.737Z,16.17
2024-03-08T00:23:07.671Z,13.53
2024-03-08T00:25:36.862Z,14.50
2024-03-08T00:28:05.833Z,16.97
2024-03-08T00:30:35.574Z,15.27
2024-03-08T00:33:03.820Z,13.60
2024-03-08T00:35:32.379Z,14.43
2024-03-08T00:37:59.277Z,14.40
2024-03-08T00:40:27.173Z,14.27
2024-03-08T00:42:54.442Z,15.00
2024-03-08T00:45:23.257Z,16.87
2024-03-08T00:47:52.602Z,13.73
2024-03-08T00:50:20.513Z,14.47
2024-03-08T00:52:48.598Z,14.57
2024-03-08T00:55:16.551Z,16.13
2024-03-08T00:57:44.414Z,14.60
2024-03-08T01:00:13.993Z,14.47
2024-03-08T01:02:42.207Z,15.30
2024-03-08T01:05:11.793Z,15.47
2024-03-08T01:07:39.694Z,14.83
2024-03-08T01:10:10.958Z,15.33
2024-03-08T01:12:39.099Z,14.97
2024-03-08T01:15:08.311Z,14.13
2024-03-08T01:17:36.458Z,14.73
2024-03-08T01:20:04.698Z,14.67
2024-03-08T01:22:33.957Z,15.97
2024-03-08T01:25:01.820Z,14.67
2024-03-08T01:27:29.666Z,15.97
2024-03-08T01:29:57.616Z,16.63
2024-03-08T01:32:25.497Z,14.70
2024-03-08T01:34:53.348Z,14.90
2024-03-08T01:37:21.226Z,15.87
2024-03-08T01:39:50.462Z,16.10
2024-03-08T01:42:18.756Z,17.43
2024-03-08T01:44:46.830Z,17.50
2024-03-08T01:47:14.806Z,15.47
2024-03-08T01:49:43.060Z,14.50
2024-03-08T01:52:11.128Z,14.77
2024-03-08T01:54:39.409Z,14.10
2024-03-08T01:57:08.986Z,17.00
2024-03-08T01:59:37.305Z,13.60
2024-03-08T02:02:09.945Z,15.13
2024-03-08T02:04:39.991Z,14.97
2024-03-08T02:07:11.150Z,15.03
2024-03-08T02:09:40.321Z,14.07
2024-03-08T02:12:10.244Z,15.87
2024-03-08T02:14:41.271Z,17.47
2024-03-08T02:17:09.492Z,17.03
2024-03-08T02:19:37.617Z,18.00
2024-03-08T02:22:08.078Z,13.83
2024-03-08T02:24:36.012Z,15.60
2024-03-08T02:27:04.083Z,15.13
2024-03-08T02:29:33.415Z,16.63
2024-03-08T02:32:01.269Z,14.43
2024-03-08T02:34:29.346Z,14.40
2024-03-08T02:36:58.049Z,15.03
2024-03-08T02:39:28.787Z,15.97
2024-03-08T02:41:57.275Z,14.57
2024-03-08T02:44:25.189Z,14.37
2024-03-08T02:46:56.036Z,16.33
2024-03-08T02:49:24.001Z,17.93
2024-03-08T02:51:52.060Z,15.50
2024-03-08T02:54:20.357Z,15.40
2024-03-08T02:56:51.235Z,14.50
2024-03-08T02:59:19.880Z,17.87
2024-03-08T03:01:47.805Z,16.77
2024-03-08T03:04:15.828Z,15.67
2024-03-08T03:06:43.674Z,15.97
2024-03-08T03:09:12.084Z,14.00
2024-03-08T03:11:40.087Z,14.70
2024-03-08T03:14:10.153Z,17.53
2024-03-08T03:16:38.012Z,17.10
2024-03-08T03:19:06.442Z,16.17
2024-03-08T03:21:36.846Z,18.70
2024-03-08T03:24:05.410Z,17.30
2024-03-08T03:26:33.378Z,17.23
2024-03-08T03:29:01.757Z,14.50
2024-03-08T03:31:31.297Z,15.70
2024-03-08T03:34:02.816Z,16.27
2024-03-08T03:36:30.939Z,17.10
2024-03-08T03:39:08.090Z,18.00
2024-03-08T03:41:36.056Z,16.70
2024-03-08T03:44:03.988Z,17.53
2024-03-08T03:46:33.248Z,16.07
2024-03-08T03:49:01.123Z,15.80
2024-03-08T03:51:30.299Z,16.27
2024-03-08T03:53:58.564Z,15.33
2024-03-08T03:56:28.587Z,17.77
2024-03-08T03:58:56.485Z,18.87
2024-03-08T04:01:25.079Z,17.47
2024-03-08T04:03:54.464Z,16.50
2024-03-08T04:06:23.611Z,18.03
2024-03-08T04:08:51.700Z,20.17
2024-03-08T04:11:19.693Z,16.67
2024-03-08T04:13:47.673Z,17.00
2024-03-08T04:16:15.716Z,17.33
2024-03-08T04:18:44.366Z,19.30
2024-03-08T04:21:13.782Z,17.33
2024-03-08T04:23:41.925Z,18.10
2024-03-08T04:26:10.088Z,16.87
2024-03-08T04:28:38.404Z,17.53
2024-03-08T04:31:06.336Z,16.63
2024-03-08T04:33:36.663Z,16.90
2024-03-08T04:36:05.398Z,18.37
2024-03-08T04:38:35.391Z,17.20
2024-03-08T04:41:03.358Z,17.83
2024-03-08T04:43:31.459Z,17.70
2024-03-08T04:45:59.599Z,20.67
2024-03-08T04:48:27.772Z,17.20
2024-03-08T04:50:56.728Z,18.27
2024-03-08T04:53:24.664Z,15.93
2024-03-08T04:55:53.874Z,16.60
2024-03-08T04:58:21.932Z,18.80
2024-03-08T05:00:49.873Z,17.43
2024-03-08T05:03:18.704Z,16.43
2024-03-08T05:05:46.620Z,18.40
2024-03-08T05:08:14.569Z,18.03
2024-03-08T05:10:42.490Z,17.23
2024-03-08T05:13:11.729Z,20.50
2024-03-08T05:15:40.275Z,16.10
2024-03-08T05:18:09.658Z,19.70
2024-03-08T05:20:38.295Z,17.67
2024-03-08T05:23:06.558Z,18.03
2024-03-08T05:25:34.444Z,15.73
2024-03-08T05:28:02.308Z,17.83
2024-03-08T05:30:32.926Z,17.33
2024-03-08T05:33:01.132Z,18.53
2024-03-08T05:35:29.127Z,18.23
2024-03-08T05:37:56.989Z,22.03
2024-03-08T05:40:25.194Z,19.33
2024-03-08T05:42:53.051Z,20.00
2024-03-08T05:45:21.027Z,19.37
2024-03-08T05:47:50.398Z,18.53
2024-03-08T05:50:18.578Z,20.07
2024-03-08T05:52:46.447Z,18.17
2024-03-08T05:55:15.353Z,17.37
2024-03-08T05:57:43.430Z,18.63
2024-03-08T06:00:12.821Z,16.83
2024-03-08T06:02:42.448Z,17.60
2024-03-08T06:05:12.996Z,17.93
2024-03-08T06:07:41.339Z,17.57
2024-03-08T06:10:12.120Z,17.43
2024-03-08T06:12:42.676Z,17.93
2024-03-08T06:15:15.472Z,18.10
2024-03-08T06:17:43.821Z,17.87
2024-03-08T06:20:14.712Z,19.90
2024-03-08T06:22:45.440Z,18.70
2024-03-08T06:25:15.039Z,15.93
2024-03-08T06:27:43.574Z,21.87
2024-03-08T06:30:13.075Z,19.53
2024-03-08T06:32:41.345Z,20.73
2024-03-08T06:35:11.565Z,17.67
2024-03-08T06:37:40.767Z,18.17
2024-03-08T06:40:14.626Z,19.67
2024-03-08T06:42:42.784Z,17.13
2024-03-08T06:45:11.528Z,19.10
2024-03-08T06:47:39.520Z,19.67
2024-03-08T06:50:09.269Z,18.40
2024-03-08T06:52:37.219Z,17.33
2024-03-08T06:55:07.434Z,17.00
2024-03-08T06:57:35.686Z,18.40
2024-03-08T07:00:03.686Z,16.90
2024-03-08T07:02:33.658Z,19.30
2024-03-08T07:05:02.651Z,16.87
2024-03-08T07:07:31.336Z,19.47
2024-03-08T07:09:59.235Z,18.60
2024-03-08T07:12:28.529Z,18.63
2024-03-08T07:14:56.766Z,18.23
2024-03-08T07:17:25.495Z,20.20
2024-03-08T07:19:55.140Z,21.60
2024-03-08T07:22:24.518Z,17.73
2024-03-08T07:25:05.982Z,20.37
2024-03-08T07:27:37.269Z,18.57
2024-03-08T07:30:09.150Z,18.43
2024-03-08T07:32:37.377Z,19.07
2024-03-08T07:35:06.090Z,18.00
2024-03-08T07:37:34.164Z,19.47
2024-03-08T07:40:02.165Z,20.47
2024-03-08T07:42:30.786Z,18.20
2024-03-08T07:45:00.989Z,18.33
2024-03-08T07:47:29.001Z,18.43
2024-03-08T07:49:57.874Z,18.20
2024-03-08T07:52:26.981Z,19.37
2024-03-08T07:54:55.906Z,20.90
2024-03-08T07:57:23.931Z,18.57
2024-03-08T07:59:52.093Z,20.63
2024-03-08T08:02:21.410Z,17.90
2024-03-08T08:04:49.364Z,17.97
2024-03-08T08:07:17.446Z,20.30
2024-03-08T08:09:45.358Z,17.47
2024-03-08T08:12:13.854Z,18.23
2024-03-08T08:14:42.269Z,16.77
2024-03-08T08:17:10.674Z,17.10
2024-03-08T08:19:40.259Z,18.20
2024-03-08T08:22:10.016Z,18.77
2024-03-08T08:24:38.795Z,16.90
2024-03-08T08:27:07.761Z,20.63
2024-03-08T08:29:36.563Z,17.77
2024-03-08T08:32:04.898Z,16.83
2024-03-08T08:34:32.920Z,19.80
2024-03-08T08:37:02.493Z,17.30
2024-03-08T08:39:30.546Z,18.40
2024-03-08T08:41:58.882Z,17.17
2024-03-08T08:44:27.020Z,15.83
2024-03-08T08:46:59.595Z,15.90
2024-03-08T08:49:31.746Z,13.30
2024-03-08T08:52:06.519Z,15.03
2024-03-08T08:54:41.145Z,12.60
2024-03-08T08:57:09.106Z,14.57
2024-03-08T08:59:37.799Z,14.50
2024-03-08T09:02:05.986Z,14.40
2024-03-08T09:04:34.237Z,13.82
2024-03-08T09:07:02.518Z,15.43
2024-03-08T09:09:30.688Z,12.98
2024-03-08T09:12:00.029Z,13.35
2024-03-08T09:14:28.007Z,12.20
2024-03-08T09:16:56.134Z,12.35
2024-03-08T09:19:26.934Z,12.25
2024-03-08T09:21:55.432Z,12.95
2024-03-08T09:24:23.358Z,11.38
2024-03-08T09:26:51.237Z,11.15
2024-03-08T09:29:20.478Z,11.88
2024-03-08T09:31:48.412Z,10.93
2024-03-08T09:34:20.581Z,11.43
2024-03-08T09:36:53.759Z,10.27
2024-03-08T09:39:23.510Z,10.82
2024-03-08T09:41:52.426Z,10.77
2024-03-08T09:44:21.770Z,10.70
2024-03-08T09:46:49.870Z,11.68
2024-03-08T09:49:18.207Z,12.10
2024-03-08T09:51:47.080Z,10.35
2024-03-08T09:54:22.926Z,9.82
2024-03-08T09:56:54.636Z,9.55
2024-03-08T09:59:45.253Z,9.70
2024-03-08T10:02:17.878Z,10.00
2024-03-08T10:04:47.683Z,9.85
2024-03-08T10:07:16.623Z,10.05
2024-03-08T10:09:50.426Z,11.35
2024-03-08T10:12:20.316Z,10.23
2024-03-08T10:14:49.581Z,9.68
2024-03-08T10:17:17.504Z,9.50
2024-03-08T10:19:52.908Z,9.48
2024-03-08T10:22:21.014Z,9.57
2024-03-08T10:24:49.826Z,9.95
2024-03-08T10:27:19.345Z,9.55
2024-03-08T10:29:52.692Z,9.02
2024-03-08T10:32:21.500Z,8.65
2024-03-08T10:34:51.165Z,7.93
2024-03-08T10:37:25.291Z,8.10
2024-03-08T10:40:11.130Z,8.38
2024-03-08T10:42:43.249Z,8.90
2024-03-08T10:45:22.671Z,8.63
2024-03-08T10:47:51.901Z,8.10
2024-03-08T10:50:22.506Z,9.02
2024-03-08T10:52:52.214Z,8.43
2024-03-08T10:55:21.380Z,8.35
2024-03-08T10:57:49.690Z,7.35
2024-03-08T11:00:26.933Z,8.00
2024-03-08T11:02:55.458Z,7.93
2024-03-08T11:05:36.290Z,7.30
2024-03-08T11:08:06.753Z,6.95
2024-03-08T11:10:34.767Z,8.23
2024-03-08T11:13:03.036Z,11.88
2024-03-08T11:15:33.030Z,11.02
2024-03-08T11:18:02.222Z,9.75
2024-03-08T11:20:33.394Z,8.52
2024-03-08T11:23:08.383Z,7.25
2024-03-08T11:25:42.692Z,7.50
2024-03-08T11:28:17.968Z,12.45
2024-03-08T11:31:27.746Z,9.77
2024-03-08T11:33:56.177Z,8.48
2024-03-08T11:36:25.415Z,9.30
2024-03-08T11:38:56.282Z,8.43
2024-03-08T11:41:25.947Z,9.13
2024-03-08T11:44:06.117Z,9.65
2024-03-08T11:46:36.717Z,9.68
2024-03-08T11:49:06.664Z,11.10
2024-03-08T11:51:34.937Z,9.82
2024-03-08T11:54:03.701Z,9.55
2024-03-08T11:56:33.097Z,10.63
2024-03-08T11:59:01.872Z,9.35
2024-03-08T12:01:29.867Z,10.68
2024-03-08T12:04:02.368Z,9.02
2024-03-08T12:06:41.036Z,10.02
2024-03-08T12:09:13.877Z,10.38
2024-03-08T12:11:42.148Z,10.60
2024-03-08T12:14:11.292Z,10.48
2024-03-08T12:16:39.452Z,10.77
2024-03-08T12:19:10.542Z,10.52
2024-03-08T12:21:38.775Z,10.88
2024-03-08T12:24:10.414Z,10.07
2024-03-08T12:26:39.546Z,11.23
2024-03-08T12:29:28.626Z,10.30
2024-03-08T12:31:59.410Z,10.63
2024-03-08T12:34:29.378Z,10.00
2024-03-08T12:36:57.411Z,11.05
2024-03-08T12:39:27.940Z,10.60
2024-03-08T12:41:58.013Z,9.25
2024-03-08T12:44:27.014Z,10.35
2024-03-08T12:46:55.547Z,10.43
2024-03-08T12:49:24.403Z,10.10
2024-03-08T12:51:54.557Z,11.25
2024-03-08T12:54:24.438Z,11.13
2024-03-08T12:56:54.504Z,10.32
2024-03-08T12:59:23.337Z,12.55
2024-03-08T13:01:52.500Z,11.35
2024-03-08T13:04:22.277Z,12.85
2024-03-08T13:06:54.371Z,11.35
2024-03-08T13:09:25.247Z,12.02
2024-03-08T13:11:55.136Z,12.90
2024-03-08T13:14:23.413Z,11.13
2024-03-08T13:16:52.770Z,11.88
2024-03-08T13:19:22.820Z,9.57
2024-03-08T13:21:51.119Z,11.60
2024-03-08T13:24:19.946Z,11.27
2024-03-08T13:26:50.972Z,10.07
2024-03-08T13:29:19.623Z,11.48
2024-03-08T13:31:52.689Z,10.88
2024-03-08T13:34:28.749Z,11.00
2024-03-08T13:37:01.150Z,10.57
2024-03-08T13:39:30.275Z,12.25
2024-03-08T13:41:59.592Z,11.77
2024-03-08T13:44:28.983Z,10.30
2024-03-08T13:46:59.161Z,11.07
2024-03-08T13:49:27.492Z,10.00
2024-03-08T13:51:56.036Z,8.98
2024-03-08T13:54:24.096Z,8.73
2024-03-08T13:56:55.154Z,10.13
2024-03-08T13:59:25.358Z,9.95
2024-03-08T14:01:53.323Z,9.27
2024-03-08T14:04:21.383Z,8.50
2024-03-08T14:06:50.263Z,9.23
2024-03-08T14:09:18.833Z,9.73
2024-03-08T14:11:46.890Z,10.02
2024-03-08T14:14:14.927Z,9.25
2024-03-08T14:16:44.415Z,9.90
2024-03-08T14:19:12.312Z,9.45
2024-03-08T14:21:40.661Z,10.13
2024-03-08T14:24:08.942Z,9.02
2024-03-08T14:26:39.497Z,9.63
2024-03-08T14:29:07.884Z,9.02
2024-03-08T14:31:36.980Z,7.80
2024-03-08T14:34:06.445Z,7.90
2024-03-08T14:36:34.416Z,8.48
2024-03-08T14:39:02.603Z,8.02
2024-03-08T14:41:30.939Z,8.30
2024-03-08T14:43:59.011Z,7.53
2024-03-08T14:46:27.746Z,8.75
2024-03-08T14:48:55.642Z,7.68
2024-03-08T14:51:27.208Z,7.20
2024-03-08T14:53:55.606Z,8.27
2024-03-08T14:56:23.926Z,7.10
2024-03-08T14:58:52.712Z,8.50
2024-03-08T15:01:23.457Z,8.50
2024-03-08T15:03:51.655Z,9.27
2024-03-08T15:06:22.080Z,7.20
2024-03-08T15:08:52.865Z,8.83
2024-03-08T15:11:26.094Z,8.23
2024-03-08T15:13:54.607Z,7.47
2024-03-08T15:16:24.905Z,8.10
2024-03-08T15:18:54.520Z,7.37
2024-03-08T15:21:23.628Z,7.90
2024-03-08T15:23:54.922Z,10.10
2024-03-08T15:26:22.871Z,10.57
2024-03-08T15:28:52.909Z,7.83
2024-03-08T15:31:22.520Z,8.40
2024-03-08T15:33:52.729Z,9.83
2024-03-08T15:36:22.237Z,8.30
2024-03-08T15:38:53.201Z,7.83
2024-03-08T15:41:22.826Z,10.63
2024-03-08T15:43:51.885Z,8.40
2024-03-08T15:46:23.472Z,8.27
2024-03-08T15:48:52.499Z,9.27
2024-03-08T15:51:21.168Z,8.60
2024-03-08T15:53:54.364Z,10.20
2024-03-08T15:56:24.778Z,9.33
2024-03-08T15:58:53.221Z,9.40
2024-03-08T16:01:23.589Z,10.23
2024-03-08T16:03:51.768Z,8.73
2024-03-08T16:06:22.347Z,10.30
2024-03-08T16:08:50.448Z,10.87
2024-03-08T16:11:19.773Z,10.20
2024-03-08T16:13:50.359Z,12.05
2024-03-08T16:16:19.025Z,11.67
2024-03-08T16:18:46.974Z,11.60
2024-03-08T16:21:15.519Z,11.67
2024-03-08T16:23:44.863Z,10.03
2024-03-08T16:26:14.245Z,10.30
2024-03-08T16:28:43.382Z,10.40
2024-03-08T16:31:15.739Z,10.53
2024-03-08T16:33:45.344Z,10.77
2024-03-08T16:36:14.665Z,10.13
2024-03-08T16:38:45.810Z,10.47
2024-03-08T16:41:14.616Z,9.67
2024-03-08T16:43:44.959Z,10.80
2024-03-08T16:46:14.550Z,11.60
2024-03-08T16:48:43.211Z,10.83
2024-03-08T16:51:12.134Z,11.37
2024-03-08T16:53:42.023Z,11.30
2024-03-08T16:56:13.471Z,11.57
2024-03-08T16:58:43.868Z,11.30
2024-03-08T17:01:12.111Z,10.87
2024-03-08T17:03:48.305Z,12.00
2024-03-08T17:06:25.130Z,11.07
2024-03-08T17:08:54.725Z,13.07
2024-03-08T17:11:23.274Z,12.40
2024-03-08T17:13:51.513Z,10.73
2024-03-08T17:16:25.206Z,12.97
2024-03-08T17:18:54.672Z,11.77
2024-03-08T17:21:22.728Z,13.87
2024-03-08T17:23:50.819Z,10.93
2024-03-08T17:26:19.619Z,12.07
2024-03-08T17:28:48.809Z,11.10
2024-03-08T17:31:16.858Z,10.80
2024-03-08T17:33:44.765Z,11.30
2024-03-08T17:36:16.932Z,10.87
2024-03-08T17:38:48.855Z,11.00
2024-03-08T17:41:23.136Z,10.83
2024-03-08T17:43:51.748Z,13.33
2024-03-08T17:46:20.388Z,15.67
2024-03-08T17:48:48.379Z,13.13
2024-03-08T17:51:17.655Z,12.90
2024-03-08T17:53:47.485Z,12.70
2024-03-08T17:56:16.316Z,12.77
2024-03-08T17:58:44.340Z,12.47
2024-03-08T18:01:15.603Z,12.97
2024-03-08T18:03:43.579Z,15.37
2024-03-08T18:06:11.480Z,13.80
2024-03-08T18:08:43.692Z,14.60
2024-03-08T18:11:11.712Z,12.80
2024-03-08T18:13:39.787Z,12.30
2024-03-08T18:16:08.883Z,11.77
2024-03-08T18:18:37.954Z,14.00
2024-03-08T18:21:07.086Z,16.93
2024-03-08T18:23:35.054Z,16.60
2024-03-08T18:26:04.559Z,18.97
2024-03-08T18:28:32.620Z,15.50
2024-03-08T18:31:01.437Z,18.03
2024-03-08T18:33:33.323Z,15.23
2024-03-08T18:36:01.315Z,13.77
2024-03-08T18:38:29.240Z,11.60
2024-03-08T18:40:58.737Z,12.10
2024-03-08T18:43:28.916Z,10.37
2024-03-08T18:45:58.485Z,12.40
2024-03-08T18:48:27.596Z,10.40
2024-03-08T18:50:55.641Z,10.67
2024-03-08T18:53:24.238Z,11.93
2024-03-08T18:55:52.733Z,11.53
2024-03-08T18:58:27.504Z,11.20
2024-03-08T19:01:06.469Z,12.10
2024-03-08T19:03:35.684Z,10.33
2024-03-08T19:06:04.168Z,10.67
2024-03-08T19:08:33.921Z,11.23
2024-03-08T19:11:02.208Z,13.67
2024-03-08T19:13:30.243Z,10.50
2024-03-08T19:15:58.276Z,11.80
2024-03-08T19:18:28.446Z,12.70
2024-03-08T19:20:57.513Z,14.43
2024-03-08T19:23:25.671Z,13.63
2024-03-08T19:25:53.750Z,15.17
2024-03-08T19:28:22.633Z,13.80
2024-03-08T19:30:53.567Z,13.90
2024-03-08T19:33:22.084Z,13.27
2024-03-08T19:35:51.619Z,13.27
2024-03-08T19:38:20.970Z,14.17
2024-03-08T19:40:49.880Z,16.47
2024-03-08T19:43:17.913Z,14.30
2024-03-08T19:45:46.449Z,13.17
2024-03-08T19:48:19.286Z,12.57
2024-03-08T19:50:47.914Z,11.80
2024-03-08T19:53:18.760Z,11.93
2024-03-08T19:55:50.519Z,11.30
2024-03-08T19:58:19.910Z,12.73
2024-03-08T20:00:48.796Z,14.80
2024-03-08T20:03:22.376Z,12.60
2024-03-08T20:05:52.525Z,12.87
2024-03-08T20:08:23.928Z,14.40
2024-03-08T20:10:53.123Z,12.13
2024-03-08T20:13:21.374Z,13.07
2024-03-08T20:15:54.810Z,12.37
2024-03-08T20:18:27.017Z,14.27
2024-03-08T20:20:55.360Z,11.47
2024-03-08T20:23:25.204Z,12.47
2024-03-08T20:25:53.604Z,11.53
2024-03-08T20:28:22.636Z,11.23
2024-03-08T20:30:50.524Z,10.60
2024-03-08T20:33:18.422Z,12.40
2024-03-08T20:35:47.262Z,11.50
2024-03-08T20:38:21.264Z,13.40
2024-03-08T20:40:51.449Z,14.63
2024-03-08T20:43:22.799Z,11.33
2024-03-08T20:45:51.513Z,12.43
2024-03-08T20:48:21.492Z,13.63
2024-03-08T20:50:51.922Z,11.57
2024-03-08T20:53:20.787Z,12.00
2024-03-08T20:55:51.667Z,11.23
2024-03-08T20:58:20.350Z,9.40
2024-03-08T21:00:55.070Z,10.93
2024-03-08T21:03:24.859Z,11.47
2024-03-08T21:05:54.709Z,12.00
2024-03-08T21:08:27.758Z,10.87
2024-03-08T21:10:58.905Z,11.03
2024-03-08T21:13:28.234Z,10.50
2024-03-08T21:15:57.381Z,11.23
2024-03-08T21:18:26.215Z,10.10
2024-03-08T21:20:54.564Z,11.60
2024-03-08T21:23:22.542Z,11.83
2024-03-08T21:25:50.624Z,11.83
2024-03-08T21:28:20.144Z,13.43
2024-03-08T21:30:48.235Z,10.63
2024-03-08T21:33:16.252Z,11.00
2024-03-08T21:35:44.224Z,10.93
2024-03-08T21:38:12.705Z,10.50
2024-03-08T21:40:57.060Z,12.33
2024-03-08T21:43:34.401Z,11.07
2024-03-08T21:46:03.065Z,9.97
2024-03-08T21:48:31.525Z,10.60
2024-03-08T21:50:59.498Z,10.20
2024-03-08T21:53:33.787Z,12.90
2024-03-08T21:56:03.815Z,13.27
2024-03-08T21:58:34.933Z,11.40
2024-03-08T22:01:03.273Z,10.87
2024-03-08T22:03:33.839Z,11.73
2024-03-08T22:06:05.288Z,12.10
2024-03-08T22:08:34.464Z,10.20
2024-03-08T22:11:02.640Z,11.23
2024-03-08T22:13:30.727Z,13.10
2024-03-08T22:16:00.019Z,11.43
2024-03-08T22:18:33.122Z,11.47
2024-03-08T22:21:01.166Z,10.83
2024-03-08T22:23:29.208Z,10.97
2024-03-08T22:25:57.830Z,11.57
2024-03-08T22:28:26.974Z,10.30
2024-03-08T22:30:55.360Z,9.93
2024-03-08T22:33:25.960Z,11.20
2024-03-08T22:35:54.856Z,11.07
2024-03-08T22:38:23.032Z,9.53
2024-03-08T22:40:51.207Z,11.23
2024-03-08T22:43:19.432Z,11.00
2024-03-08T22:45:49.804Z,11.27
2024-03-08T22:48:17.773Z,10.57
2024-03-08T22:50:47.084Z,10.27
2024-03-08T22:53:15.763Z,10.30
2024-03-08T22:55:43.835Z,11.67
2024-03-08T22:58:11.783Z,10.37
2024-03-08T23:00:55.695Z,11.40
2024-03-08T23:03:24.850Z,10.43
2024-03-08T23:05:55.799Z,11.07
2024-03-08T23:08:24.556Z,11.10
2024-03-08T23:10:52.830Z,10.67
2024-03-08T23:13:20.882Z,10.53
2024-03-08T23:15:48.801Z,13.00
2024-03-08T23:18:17.233Z,14.00
2024-03-08T23:20:45.184Z,14.57
2024-03-08T23:23:14.824Z,12.67
2024-03-08T23:25:45.901Z,14.10
2024-03-08T23:28:14.271Z,11.60
2024-03-08T23:30:44.413Z,13.63
2024-03-08T23:33:15.601Z,15.07
2024-03-08T23:35:45.484Z,12.87
2024-03-08T23:38:15.672Z,13.83
2024-03-08T23:40:43.851Z,13.30
2024-03-08T23:43:11.814Z,12.90
2024-03-08T23:45:40.107Z,11.97
2024-03-08T23:48:08.896Z,12.00
2024-03-08T23:50:38.098Z,12.20
2024-03-08T23:53:08.553Z,12.03
2024-03-08T23:55:39.762Z,11.70
2024-03-08T23:58:10.929Z,12.57
